HKE825 ROAH-VHHH
Flight info
| Callsign | HKE825 |
|---|---|
| Flight time | 2h 26m |
| Altitude | 34000 |
| Route | GANJU Y576 LILRA Y573 SEDKU R595 APU A1 ELATO V522 ABBEY |
| Aircraft | A21N/M-SDE3FGHIRWY/LB1 |
Departure
| Time | 2026-04-25 09:09 |
|---|---|
| Airport | Naha International Airport (ROAH) |
Arrival
| Time | 2026-04-25 11:36 |
|---|---|
| Airport | Hong Kong International Airport (VHHH) |
| Time | Latitude | Longitude | Altitude | Speed | Heading |
|---|---|---|---|---|---|
| 2026-04-25 08:32 | 26.20710 | 127.64919 | 27 ft | 0 kts | 27° |
| 2026-04-25 08:56 | 26.20709 | 127.64919 | 27 ft | 0 kts | 27° |
| 2026-04-25 08:56 | 26.20701 | 127.64915 | 26 ft | 2 kts | 27° |
| 2026-04-25 08:56 | 26.20688 | 127.64907 | 25 ft | 2 kts | 27° |
| 2026-04-25 08:57 | 26.20674 | 127.64899 | 25 ft | 2 kts | 27° |
| 2026-04-25 08:57 | 26.20666 | 127.64894 | 24 ft | 2 kts | 26° |
| 2026-04-25 08:57 | 26.20651 | 127.64893 | 24 ft | 2 kts | 340° |
| 2026-04-25 08:57 | 26.20638 | 127.64902 | 24 ft | 2 kts | 303° |
| 2026-04-25 08:58 | 26.20634 | 127.64915 | 26 ft | 0 kts | 273° |
| 2026-04-25 08:58 | 26.20634 | 127.64922 | 26 ft | 1 kts | 269° |
| 2026-04-25 08:58 | 26.20634 | 127.64924 | 27 ft | 0 kts | 269° |
| 2026-04-25 09:01 | 26.20634 | 127.64922 | 26 ft | 2 kts | 269° |
| 2026-04-25 09:01 | 26.20634 | 127.64850 | 20 ft | 14 kts | 270° |
| 2026-04-25 09:02 | 26.20595 | 127.64756 | 17 ft | 14 kts | 197° |
| 2026-04-25 09:02 | 26.20495 | 127.64752 | 18 ft | 16 kts | 178° |
| 2026-04-25 09:02 | 26.20360 | 127.64758 | 21 ft | 21 kts | 178° |
| 2026-04-25 09:02 | 26.20209 | 127.64764 | 24 ft | 20 kts | 178° |
| 2026-04-25 09:03 | 26.20070 | 127.64771 | 27 ft | 19 kts | 177° |
| 2026-04-25 09:03 | 26.19933 | 127.64778 | 25 ft | 22 kts | 178° |
| 2026-04-25 09:03 | 26.19754 | 127.64786 | 22 ft | 27 kts | 177° |
| 2026-04-25 09:03 | 26.19570 | 127.64794 | 25 ft | 24 kts | 178° |
| 2026-04-25 09:04 | 26.19411 | 127.64802 | 28 ft | 21 kts | 178° |
| 2026-04-25 09:04 | 26.19263 | 127.64809 | 28 ft | 20 kts | 177° |
| 2026-04-25 09:04 | 26.19117 | 127.64816 | 30 ft | 23 kts | 178° |
| 2026-04-25 09:04 | 26.18935 | 127.64824 | 29 ft | 26 kts | 178° |
| 2026-04-25 09:05 | 26.18755 | 127.64832 | 27 ft | 25 kts | 178° |
| 2026-04-25 09:05 | 26.18584 | 127.64839 | 28 ft | 23 kts | 178° |
| 2026-04-25 09:05 | 26.18421 | 127.64848 | 26 ft | 23 kts | 178° |
| 2026-04-25 09:05 | 26.18266 | 127.64837 | 21 ft | 17 kts | 219° |
| 2026-04-25 09:06 | 26.18244 | 127.64728 | 19 ft | 15 kts | 271° |
| 2026-04-25 09:06 | 26.18290 | 127.64649 | 20 ft | 12 kts | 349° |
| 2026-04-25 09:06 | 26.18338 | 127.64645 | 22 ft | 0 kts | 358° |
| 2026-04-25 09:08 | 26.18417 | 127.64642 | 24 ft | 41 kts | 358° |
| 2026-04-25 09:08 | 26.18953 | 127.64615 | 29 ft | 109 kts | 358° |
| 2026-04-25 09:08 | 26.19925 | 127.64570 | 29 ft | 166 kts | 358° |
| 2026-04-25 09:09 | 26.21148 | 127.64543 | 474 ft | 178 kts | 359° |
| 2026-04-25 09:09 | 26.22420 | 127.64546 | 1120 ft | 185 kts | 359° |
| 2026-04-25 09:09 | 26.23711 | 127.64538 | 1849 ft | 183 kts | 359° |
| 2026-04-25 09:09 | 26.25003 | 127.64468 | 2269 ft | 192 kts | 353° |
| 2026-04-25 09:10 | 26.25924 | 127.64264 | 2470 ft | 202 kts | 341° |
| 2026-04-25 09:10 | 26.27684 | 127.63276 | 2820 ft | 227 kts | 328° |
| 2026-04-25 09:10 | 26.29100 | 127.62324 | 3172 ft | 243 kts | 328° |
| 2026-04-25 09:10 | 26.30620 | 127.61306 | 3577 ft | 257 kts | 328° |
| 2026-04-25 09:11 | 26.33707 | 127.59286 | 4911 ft | 261 kts | 328° |
| 2026-04-25 09:11 | 26.35280 | 127.58269 | 5615 ft | 261 kts | 328° |
| 2026-04-25 09:11 | 26.36854 | 127.57252 | 6276 ft | 264 kts | 327° |
| 2026-04-25 09:12 | 26.38446 | 127.56222 | 6900 ft | 267 kts | 327° |
| 2026-04-25 09:12 | 26.40023 | 127.55120 | 7505 ft | 268 kts | 317° |
| 2026-04-25 09:12 | 26.41110 | 127.53455 | 8094 ft | 267 kts | 290° |
| 2026-04-25 09:12 | 26.41416 | 127.51444 | 8690 ft | 268 kts | 266° |
| 2026-04-25 09:13 | 26.40924 | 127.49451 | 9275 ft | 272 kts | 243° |
| 2026-04-25 09:13 | 26.39763 | 127.47774 | 9885 ft | 276 kts | 231° |
| 2026-04-25 09:13 | 26.38504 | 127.46182 | 10418 ft | 280 kts | 231° |
| 2026-04-25 09:13 | 26.37188 | 127.44489 | 10687 ft | 294 kts | 232° |
| 2026-04-25 09:14 | 26.35827 | 127.42738 | 10940 ft | 308 kts | 231° |
| 2026-04-25 09:14 | 26.34368 | 127.40906 | 11183 ft | 322 kts | 229° |
| 2026-04-25 09:14 | 26.32768 | 127.39113 | 11440 ft | 335 kts | 227° |
| 2026-04-25 09:14 | 26.31088 | 127.37273 | 11881 ft | 340 kts | 227° |
| 2026-04-25 09:15 | 26.29399 | 127.35429 | 12432 ft | 342 kts | 227° |
| 2026-04-25 09:15 | 26.27697 | 127.33570 | 12980 ft | 344 kts | 226° |
| 2026-04-25 09:15 | 26.25993 | 127.31705 | 13506 ft | 346 kts | 226° |
| 2026-04-25 09:15 | 26.24267 | 127.29813 | 14027 ft | 347 kts | 227° |
| 2026-04-25 09:16 | 26.22535 | 127.27915 | 14545 ft | 348 kts | 227° |
| 2026-04-25 09:16 | 26.20821 | 127.26040 | 15066 ft | 349 kts | 226° |
| 2026-04-25 09:16 | 26.19093 | 127.24149 | 15536 ft | 351 kts | 226° |
| 2026-04-25 09:16 | 26.17346 | 127.22240 | 15950 ft | 354 kts | 226° |
| 2026-04-25 09:17 | 26.13854 | 127.18334 | 16789 ft | 357 kts | 229° |
| 2026-04-25 09:17 | 26.12256 | 127.16191 | 17203 ft | 359 kts | 233° |
| 2026-04-25 09:17 | 26.10832 | 127.13930 | 17602 ft | 360 kts | 237° |
| 2026-04-25 09:18 | 26.09486 | 127.11573 | 18008 ft | 361 kts | 238° |
| 2026-04-25 09:18 | 26.08149 | 127.09218 | 18394 ft | 363 kts | 238° |
| 2026-04-25 09:18 | 26.06796 | 127.06826 | 18781 ft | 364 kts | 238° |
| 2026-04-25 09:18 | 26.05467 | 127.04478 | 19178 ft | 365 kts | 238° |
| 2026-04-25 09:19 | 26.04108 | 127.02078 | 19567 ft | 365 kts | 238° |
| 2026-04-25 09:19 | 26.02761 | 126.99697 | 19923 ft | 367 kts | 238° |
| 2026-04-25 09:19 | 26.01392 | 126.97278 | 20298 ft | 367 kts | 238° |
| 2026-04-25 09:19 | 26.00044 | 126.94902 | 20659 ft | 368 kts | 238° |
| 2026-04-25 09:20 | 25.98688 | 126.92508 | 21030 ft | 368 kts | 238° |
| 2026-04-25 09:20 | 25.97312 | 126.90083 | 21341 ft | 370 kts | 238° |
| 2026-04-25 09:20 | 25.95950 | 126.87685 | 21660 ft | 371 kts | 238° |
| 2026-04-25 09:20 | 25.94559 | 126.85238 | 21965 ft | 372 kts | 238° |
| 2026-04-25 09:21 | 25.93188 | 126.82827 | 22246 ft | 373 kts | 238° |
| 2026-04-25 09:21 | 25.91802 | 126.80386 | 22546 ft | 374 kts | 238° |
| 2026-04-25 09:21 | 25.90406 | 126.77931 | 22838 ft | 375 kts | 238° |
| 2026-04-25 09:21 | 25.89013 | 126.75485 | 23120 ft | 377 kts | 238° |
| 2026-04-25 09:22 | 25.87617 | 126.73026 | 23423 ft | 377 kts | 239° |
| 2026-04-25 09:22 | 25.86301 | 126.70532 | 23719 ft | 378 kts | 241° |
| 2026-04-25 09:22 | 25.84996 | 126.67988 | 24019 ft | 378 kts | 240° |
| 2026-04-25 09:22 | 25.83697 | 126.65456 | 24311 ft | 379 kts | 240° |
| 2026-04-25 09:23 | 25.82381 | 126.62898 | 24565 ft | 381 kts | 240° |
| 2026-04-25 09:23 | 25.81089 | 126.60381 | 24831 ft | 381 kts | 240° |
| 2026-04-25 09:23 | 25.79773 | 126.57823 | 25107 ft | 382 kts | 240° |
| 2026-04-25 09:23 | 25.78455 | 126.55257 | 25379 ft | 383 kts | 240° |
| 2026-04-25 09:24 | 25.77127 | 126.52677 | 25638 ft | 383 kts | 240° |
| 2026-04-25 09:24 | 25.75818 | 126.50131 | 25884 ft | 384 kts | 240° |
| 2026-04-25 09:24 | 25.74489 | 126.47551 | 26127 ft | 385 kts | 240° |
| 2026-04-25 09:24 | 25.73166 | 126.44986 | 26363 ft | 386 kts | 240° |
| 2026-04-25 09:25 | 25.71837 | 126.42404 | 26610 ft | 386 kts | 240° |
| 2026-04-25 09:25 | 25.70490 | 126.39796 | 26835 ft | 387 kts | 240° |
| 2026-04-25 09:25 | 25.69162 | 126.37222 | 27002 ft | 389 kts | 240° |
| 2026-04-25 09:25 | 25.67810 | 126.34603 | 27216 ft | 390 kts | 240° |
| 2026-04-25 09:26 | 25.66468 | 126.32005 | 27455 ft | 391 kts | 239° |
| 2026-04-25 09:26 | 25.65109 | 126.29372 | 27672 ft | 392 kts | 239° |
| 2026-04-25 09:26 | 25.63754 | 126.26755 | 27879 ft | 393 kts | 239° |
| 2026-04-25 09:26 | 25.62395 | 126.24128 | 28096 ft | 394 kts | 239° |
| 2026-04-25 09:27 | 25.61034 | 126.21501 | 28330 ft | 394 kts | 239° |
| 2026-04-25 09:27 | 25.59675 | 126.18877 | 28616 ft | 393 kts | 239° |
| 2026-04-25 09:27 | 25.58323 | 126.16268 | 28941 ft | 392 kts | 240° |
| 2026-04-25 09:27 | 25.56964 | 126.13650 | 29272 ft | 389 kts | 240° |
| 2026-04-25 09:28 | 25.55636 | 126.11083 | 29600 ft | 387 kts | 239° |
| 2026-04-25 09:28 | 25.54304 | 126.08514 | 29895 ft | 386 kts | 239° |
| 2026-04-25 09:28 | 25.52967 | 126.05939 | 30151 ft | 385 kts | 239° |
| 2026-04-25 09:28 | 25.51637 | 126.03381 | 30417 ft | 384 kts | 239° |
| 2026-04-25 09:29 | 25.50298 | 126.00803 | 30702 ft | 383 kts | 239° |
| 2026-04-25 09:29 | 25.48983 | 125.98274 | 31007 ft | 381 kts | 239° |
| 2026-04-25 09:29 | 25.47659 | 125.95729 | 31325 ft | 378 kts | 239° |
| 2026-04-25 09:29 | 25.46358 | 125.93230 | 31600 ft | 377 kts | 239° |
| 2026-04-25 09:30 | 25.45053 | 125.90728 | 31882 ft | 375 kts | 239° |
| 2026-04-25 09:30 | 25.43755 | 125.88234 | 32151 ft | 374 kts | 238° |
| 2026-04-25 09:30 | 25.42442 | 125.85722 | 32389 ft | 373 kts | 238° |
| 2026-04-25 09:30 | 25.41162 | 125.83278 | 32614 ft | 372 kts | 239° |
| 2026-04-25 09:31 | 25.39871 | 125.80808 | 32812 ft | 372 kts | 238° |
| 2026-04-25 09:31 | 25.38563 | 125.78307 | 32993 ft | 373 kts | 239° |
| 2026-04-25 09:31 | 25.37270 | 125.75839 | 33209 ft | 372 kts | 238° |
| 2026-04-25 09:31 | 25.35979 | 125.73367 | 33396 ft | 373 kts | 239° |
| 2026-04-25 09:32 | 25.34689 | 125.70910 | 33569 ft | 373 kts | 238° |
| 2026-04-25 09:32 | 25.33374 | 125.68437 | 33743 ft | 373 kts | 238° |
| 2026-04-25 09:32 | 25.32040 | 125.65945 | 33956 ft | 373 kts | 238° |
| 2026-04-25 09:33 | 25.29400 | 125.60999 | 33995 ft | 374 kts | 238° |
| 2026-04-25 09:33 | 25.26770 | 125.56069 | 34011 ft | 374 kts | 239° |
| 2026-04-25 09:34 | 25.24123 | 125.51116 | 34017 ft | 374 kts | 239° |
| 2026-04-25 09:34 | 25.21493 | 125.46188 | 34009 ft | 374 kts | 238° |
| 2026-04-25 09:35 | 25.18835 | 125.41225 | 34007 ft | 375 kts | 239° |
| 2026-04-25 09:35 | 25.16198 | 125.36298 | 34006 ft | 374 kts | 239° |
| 2026-04-25 09:36 | 25.13558 | 125.31377 | 34008 ft | 374 kts | 238° |
| 2026-04-25 09:36 | 25.10879 | 125.26456 | 34008 ft | 374 kts | 237° |
| 2026-04-25 09:37 | 25.07881 | 125.21755 | 34003 ft | 375 kts | 233° |
| 2026-04-25 09:37 | 25.04763 | 125.17124 | 33997 ft | 375 kts | 233° |
| 2026-04-25 09:38 | 25.01654 | 125.12540 | 34006 ft | 375 kts | 233° |
| 2026-04-25 09:38 | 24.98457 | 125.08016 | 33997 ft | 375 kts | 231° |
| 2026-04-25 09:39 | 24.95161 | 125.03554 | 34004 ft | 376 kts | 231° |
| 2026-04-25 09:39 | 24.91854 | 124.99086 | 34001 ft | 376 kts | 231° |
| 2026-04-25 09:40 | 24.87251 | 124.92159 | 33997 ft | 376 kts | 240° |
| 2026-04-25 09:40 | 24.85245 | 124.86813 | 34001 ft | 380 kts | 250° |
| 2026-04-25 09:41 | 24.84297 | 124.81056 | 34001 ft | 386 kts | 261° |
| 2026-04-25 09:41 | 24.84489 | 124.75126 | 34004 ft | 393 kts | 270° |
| 2026-04-25 09:42 | 24.85167 | 124.69182 | 34014 ft | 393 kts | 270° |
| 2026-04-25 09:42 | 24.85873 | 124.63206 | 34008 ft | 393 kts | 270° |
| 2026-04-25 09:43 | 24.86581 | 124.57256 | 34013 ft | 393 kts | 270° |
| 2026-04-25 09:43 | 24.87295 | 124.51301 | 34012 ft | 394 kts | 270° |
| 2026-04-25 09:44 | 24.88009 | 124.45315 | 34021 ft | 394 kts | 270° |
| 2026-04-25 09:44 | 24.88719 | 124.39363 | 34026 ft | 394 kts | 270° |
| 2026-04-25 09:45 | 24.89424 | 124.33414 | 34027 ft | 393 kts | 270° |
| 2026-04-25 09:45 | 24.90126 | 124.27477 | 34025 ft | 393 kts | 270° |
| 2026-04-25 09:46 | 24.90829 | 124.21513 | 34021 ft | 393 kts | 270° |
| 2026-04-25 09:46 | 24.91531 | 124.15539 | 34024 ft | 393 kts | 270° |
| 2026-04-25 09:47 | 24.92227 | 124.09598 | 34024 ft | 394 kts | 270° |
| 2026-04-25 09:47 | 24.92922 | 124.03631 | 34030 ft | 394 kts | 270° |
| 2026-04-25 09:48 | 24.93604 | 123.97663 | 34019 ft | 393 kts | 269° |
| 2026-04-25 09:48 | 24.94239 | 123.91698 | 34021 ft | 393 kts | 269° |
| 2026-04-25 09:49 | 24.94869 | 123.85729 | 34025 ft | 392 kts | 269° |
| 2026-04-25 09:49 | 24.95491 | 123.79816 | 34024 ft | 391 kts | 269° |
| 2026-04-25 09:50 | 24.96119 | 123.73865 | 34013 ft | 392 kts | 269° |
| 2026-04-25 09:50 | 24.96742 | 123.67895 | 34029 ft | 393 kts | 269° |
| 2026-04-25 09:51 | 24.97363 | 123.61941 | 34017 ft | 392 kts | 269° |
| 2026-04-25 09:51 | 24.97986 | 123.55952 | 34019 ft | 393 kts | 269° |
| 2026-04-25 09:52 | 24.98602 | 123.50000 | 34017 ft | 393 kts | 269° |
| 2026-04-25 09:52 | 24.99218 | 123.44029 | 34025 ft | 391 kts | 269° |
| 2026-04-25 09:53 | 24.99830 | 123.38065 | 34026 ft | 393 kts | 269° |
| 2026-04-25 09:53 | 25.00441 | 123.32107 | 34027 ft | 392 kts | 269° |
| 2026-04-25 09:54 | 25.01032 | 123.26292 | 34016 ft | 391 kts | 269° |
| 2026-04-25 09:54 | 25.01638 | 123.20339 | 34025 ft | 390 kts | 268° |
| 2026-04-25 09:55 | 25.02240 | 123.14384 | 34025 ft | 390 kts | 269° |
| 2026-04-25 09:55 | 25.02832 | 123.08469 | 34024 ft | 392 kts | 269° |
| 2026-04-25 09:56 | 25.03426 | 123.02522 | 34020 ft | 391 kts | 269° |
| 2026-04-25 09:56 | 25.04022 | 122.96568 | 34026 ft | 392 kts | 269° |
| 2026-04-25 09:57 | 25.04621 | 122.90576 | 34022 ft | 392 kts | 269° |
| 2026-04-25 09:57 | 25.05213 | 122.84615 | 34028 ft | 393 kts | 269° |
| 2026-04-25 09:58 | 25.05805 | 122.78623 | 34026 ft | 392 kts | 269° |
| 2026-04-25 09:58 | 25.06395 | 122.72635 | 34027 ft | 394 kts | 269° |
| 2026-04-25 09:59 | 25.06980 | 122.66661 | 34028 ft | 394 kts | 269° |
| 2026-04-25 09:59 | 25.07564 | 122.60675 | 34033 ft | 393 kts | 269° |
| 2026-04-25 10:00 | 25.08145 | 122.54703 | 34028 ft | 393 kts | 269° |
| 2026-04-25 10:00 | 25.08724 | 122.48709 | 34037 ft | 393 kts | 269° |
| 2026-04-25 10:01 | 25.09298 | 122.42749 | 34034 ft | 393 kts | 270° |
| 2026-04-25 10:01 | 25.09872 | 122.36760 | 34030 ft | 393 kts | 269° |
| 2026-04-25 10:02 | 25.10449 | 122.30758 | 34030 ft | 393 kts | 269° |
| 2026-04-25 10:02 | 25.10989 | 122.24764 | 34036 ft | 393 kts | 269° |
| 2026-04-25 10:03 | 25.11487 | 122.18771 | 34038 ft | 393 kts | 269° |
| 2026-04-25 10:03 | 25.11989 | 122.12801 | 34036 ft | 393 kts | 269° |
| 2026-04-25 10:04 | 25.12487 | 122.06793 | 34041 ft | 392 kts | 269° |
| 2026-04-25 10:04 | 25.13003 | 122.00796 | 34036 ft | 393 kts | 269° |
| 2026-04-25 10:05 | 25.13556 | 121.94823 | 34051 ft | 395 kts | 270° |
| 2026-04-25 10:05 | 25.14155 | 121.88823 | 34054 ft | 394 kts | 270° |
| 2026-04-25 10:06 | 25.14746 | 121.82818 | 34036 ft | 395 kts | 270° |
| 2026-04-25 10:06 | 25.15334 | 121.76766 | 34060 ft | 394 kts | 271° |
| 2026-04-25 10:07 | 25.15914 | 121.70785 | 34044 ft | 393 kts | 270° |
| 2026-04-25 10:07 | 25.16492 | 121.64800 | 34052 ft | 393 kts | 271° |
| 2026-04-25 10:08 | 25.16621 | 121.58831 | 34042 ft | 387 kts | 261° |
| 2026-04-25 10:08 | 25.15587 | 121.53061 | 34053 ft | 383 kts | 251° |
| 2026-04-25 10:09 | 25.13483 | 121.47695 | 34047 ft | 382 kts | 240° |
| 2026-04-25 10:09 | 25.10417 | 121.42938 | 34043 ft | 383 kts | 232° |
| 2026-04-25 10:10 | 25.06985 | 121.38425 | 34044 ft | 384 kts | 232° |
| 2026-04-25 10:10 | 25.03537 | 121.33936 | 34049 ft | 385 kts | 232° |
| 2026-04-25 10:11 | 25.00072 | 121.29445 | 34040 ft | 385 kts | 232° |
| 2026-04-25 10:11 | 24.96600 | 121.24948 | 34056 ft | 385 kts | 232° |
| 2026-04-25 10:12 | 24.93112 | 121.20441 | 34035 ft | 386 kts | 232° |
| 2026-04-25 10:13 | 24.87888 | 121.13694 | 34031 ft | 386 kts | 232° |
| 2026-04-25 10:13 | 24.84413 | 121.09214 | 34029 ft | 386 kts | 232° |
| 2026-04-25 10:14 | 24.80919 | 121.04721 | 34043 ft | 385 kts | 232° |
| 2026-04-25 10:14 | 24.77453 | 121.00265 | 34040 ft | 386 kts | 232° |
| 2026-04-25 10:15 | 24.73952 | 120.95766 | 34029 ft | 386 kts | 232° |
| 2026-04-25 10:15 | 24.70460 | 120.91279 | 34032 ft | 385 kts | 232° |
| 2026-04-25 10:16 | 24.66989 | 120.86827 | 34046 ft | 385 kts | 232° |
| 2026-04-25 10:16 | 24.63503 | 120.82357 | 34043 ft | 386 kts | 232° |
| 2026-04-25 10:17 | 24.60017 | 120.77891 | 34033 ft | 386 kts | 232° |
| 2026-04-25 10:17 | 24.56519 | 120.73426 | 34039 ft | 386 kts | 231° |
| 2026-04-25 10:18 | 24.52795 | 120.69109 | 34025 ft | 387 kts | 230° |
| 2026-04-25 10:18 | 24.49085 | 120.64867 | 34031 ft | 387 kts | 229° |
| 2026-04-25 10:19 | 24.45359 | 120.60609 | 34024 ft | 386 kts | 229° |
| 2026-04-25 10:19 | 24.41637 | 120.56367 | 34027 ft | 386 kts | 229° |
| 2026-04-25 10:20 | 24.37909 | 120.52119 | 34022 ft | 387 kts | 229° |
| 2026-04-25 10:20 | 24.34173 | 120.47866 | 34018 ft | 387 kts | 229° |
| 2026-04-25 10:21 | 24.30457 | 120.43639 | 34022 ft | 387 kts | 229° |
| 2026-04-25 10:21 | 24.26710 | 120.39382 | 34022 ft | 388 kts | 229° |
| 2026-04-25 10:22 | 24.22961 | 120.35128 | 34022 ft | 389 kts | 230° |
| 2026-04-25 10:22 | 24.19229 | 120.30885 | 34017 ft | 388 kts | 229° |
| 2026-04-25 10:23 | 24.15472 | 120.26632 | 34029 ft | 387 kts | 229° |
| 2026-04-25 10:23 | 24.11724 | 120.22393 | 34006 ft | 388 kts | 229° |
| 2026-04-25 10:24 | 24.07958 | 120.18130 | 34005 ft | 389 kts | 229° |
| 2026-04-25 10:24 | 24.04199 | 120.13880 | 34000 ft | 389 kts | 229° |
| 2026-04-25 10:25 | 24.00426 | 120.09620 | 34004 ft | 388 kts | 229° |
| 2026-04-25 10:25 | 23.96673 | 120.05393 | 34000 ft | 388 kts | 229° |
| 2026-04-25 10:26 | 23.92906 | 120.01156 | 33992 ft | 388 kts | 229° |
| 2026-04-25 10:26 | 23.89131 | 119.96909 | 33995 ft | 388 kts | 229° |
| 2026-04-25 10:27 | 23.85395 | 119.92705 | 34011 ft | 389 kts | 229° |
| 2026-04-25 10:27 | 23.81603 | 119.88445 | 34014 ft | 390 kts | 229° |
| 2026-04-25 10:28 | 23.77837 | 119.84215 | 34012 ft | 389 kts | 229° |
| 2026-04-25 10:28 | 23.74073 | 119.79995 | 34010 ft | 388 kts | 229° |
| 2026-04-25 10:29 | 23.70298 | 119.75762 | 34007 ft | 389 kts | 229° |
| 2026-04-25 10:29 | 23.66505 | 119.71513 | 34015 ft | 389 kts | 229° |
| 2026-04-25 10:30 | 23.62746 | 119.67270 | 34014 ft | 389 kts | 231° |
| 2026-04-25 10:30 | 23.59283 | 119.62766 | 34018 ft | 387 kts | 236° |
| 2026-04-25 10:31 | 23.56216 | 119.57951 | 34011 ft | 387 kts | 239° |
| 2026-04-25 10:31 | 23.53345 | 119.53013 | 34015 ft | 387 kts | 239° |
| 2026-04-25 10:32 | 23.50480 | 119.48085 | 34010 ft | 386 kts | 240° |
| 2026-04-25 10:32 | 23.47619 | 119.43162 | 34009 ft | 385 kts | 239° |
| 2026-04-25 10:33 | 23.44735 | 119.38204 | 34015 ft | 386 kts | 240° |
| 2026-04-25 10:33 | 23.41869 | 119.33274 | 34015 ft | 385 kts | 239° |
| 2026-04-25 10:34 | 23.39006 | 119.28353 | 34020 ft | 386 kts | 239° |
| 2026-04-25 10:34 | 23.36145 | 119.23447 | 34008 ft | 386 kts | 239° |
| 2026-04-25 10:35 | 23.33280 | 119.18535 | 34018 ft | 386 kts | 239° |
| 2026-04-25 10:35 | 23.30376 | 119.13561 | 34010 ft | 387 kts | 239° |
| 2026-04-25 10:36 | 23.27500 | 119.08638 | 34018 ft | 386 kts | 240° |
| 2026-04-25 10:36 | 23.24615 | 119.03706 | 34009 ft | 386 kts | 239° |
| 2026-04-25 10:37 | 23.21732 | 118.98780 | 34005 ft | 386 kts | 240° |
| 2026-04-25 10:37 | 23.18854 | 118.93870 | 34004 ft | 385 kts | 239° |
| 2026-04-25 10:38 | 23.15995 | 118.88992 | 33992 ft | 385 kts | 239° |
| 2026-04-25 10:38 | 23.13095 | 118.84055 | 34001 ft | 386 kts | 240° |
| 2026-04-25 10:39 | 23.10208 | 118.79143 | 34000 ft | 386 kts | 240° |
| 2026-04-25 10:39 | 23.07323 | 118.74236 | 34008 ft | 386 kts | 240° |
| 2026-04-25 10:40 | 23.04444 | 118.69342 | 34003 ft | 386 kts | 239° |
| 2026-04-25 10:40 | 23.01551 | 118.64428 | 34002 ft | 386 kts | 240° |
| 2026-04-25 10:41 | 22.98655 | 118.59517 | 34006 ft | 387 kts | 240° |
| 2026-04-25 10:41 | 22.95759 | 118.54610 | 34005 ft | 386 kts | 240° |
| 2026-04-25 10:42 | 22.92848 | 118.49709 | 34006 ft | 387 kts | 240° |
| 2026-04-25 10:42 | 22.89926 | 118.44810 | 34011 ft | 387 kts | 240° |
| 2026-04-25 10:43 | 22.87020 | 118.39933 | 34006 ft | 388 kts | 240° |
| 2026-04-25 10:43 | 22.84100 | 118.35032 | 34008 ft | 386 kts | 240° |
| 2026-04-25 10:44 | 22.81180 | 118.30142 | 34012 ft | 388 kts | 240° |
| 2026-04-25 10:44 | 22.78255 | 118.25236 | 34006 ft | 387 kts | 240° |
| 2026-04-25 10:45 | 22.75327 | 118.20336 | 34014 ft | 388 kts | 240° |
| 2026-04-25 10:45 | 22.72389 | 118.15425 | 34005 ft | 387 kts | 240° |
| 2026-04-25 10:46 | 22.69482 | 118.10566 | 34012 ft | 387 kts | 240° |
| 2026-04-25 10:46 | 22.66544 | 118.05662 | 34015 ft | 387 kts | 240° |
| 2026-04-25 10:47 | 22.63618 | 118.00784 | 34008 ft | 387 kts | 240° |
| 2026-04-25 10:47 | 22.60683 | 117.95893 | 34012 ft | 388 kts | 240° |
| 2026-04-25 10:48 | 22.57765 | 117.90997 | 34008 ft | 388 kts | 240° |
| 2026-04-25 10:48 | 22.54847 | 117.86086 | 34010 ft | 388 kts | 240° |
| 2026-04-25 10:49 | 22.51922 | 117.81164 | 34011 ft | 389 kts | 240° |
| 2026-04-25 10:49 | 22.49013 | 117.76278 | 34007 ft | 389 kts | 240° |
| 2026-04-25 10:50 | 22.46096 | 117.71381 | 34008 ft | 388 kts | 241° |
| 2026-04-25 10:50 | 22.43171 | 117.66469 | 34006 ft | 389 kts | 241° |
| 2026-04-25 10:51 | 22.40252 | 117.61580 | 34023 ft | 388 kts | 241° |
| 2026-04-25 10:51 | 22.37437 | 117.56600 | 34005 ft | 387 kts | 245° |
| 2026-04-25 10:52 | 22.35286 | 117.51306 | 34012 ft | 384 kts | 252° |
| 2026-04-25 10:52 | 22.33877 | 117.45773 | 34013 ft | 383 kts | 259° |
| 2026-04-25 10:53 | 22.33223 | 117.40055 | 34007 ft | 383 kts | 266° |
| 2026-04-25 10:53 | 22.33080 | 117.34356 | 34013 ft | 383 kts | 268° |
| 2026-04-25 10:54 | 22.32964 | 117.28590 | 34013 ft | 383 kts | 268° |
| 2026-04-25 10:54 | 22.32850 | 117.22851 | 34005 ft | 383 kts | 268° |
| 2026-04-25 10:55 | 22.32741 | 117.17136 | 34014 ft | 384 kts | 267° |
| 2026-04-25 10:55 | 22.32629 | 117.11378 | 34009 ft | 384 kts | 268° |
| 2026-04-25 10:56 | 22.32517 | 117.05644 | 34010 ft | 385 kts | 268° |
| 2026-04-25 10:56 | 22.32402 | 116.99858 | 34023 ft | 386 kts | 268° |
| 2026-04-25 10:57 | 22.32285 | 116.94075 | 34007 ft | 385 kts | 268° |
| 2026-04-25 10:57 | 22.32165 | 116.88301 | 34014 ft | 385 kts | 268° |
| 2026-04-25 10:58 | 22.32045 | 116.82542 | 34019 ft | 385 kts | 268° |
| 2026-04-25 10:58 | 22.31922 | 116.76781 | 34008 ft | 385 kts | 268° |
| 2026-04-25 10:59 | 22.31799 | 116.71031 | 34019 ft | 385 kts | 268° |
| 2026-04-25 10:59 | 22.31671 | 116.65245 | 33995 ft | 384 kts | 268° |
| 2026-04-25 11:00 | 22.31542 | 116.59508 | 34017 ft | 384 kts | 268° |
| 2026-04-25 11:00 | 22.31412 | 116.53764 | 34032 ft | 385 kts | 268° |
| 2026-04-25 11:01 | 22.31279 | 116.48000 | 34002 ft | 384 kts | 268° |
| 2026-04-25 11:01 | 22.31144 | 116.42266 | 34020 ft | 383 kts | 268° |
| 2026-04-25 11:02 | 22.31009 | 116.36534 | 34014 ft | 384 kts | 268° |
| 2026-04-25 11:02 | 22.30868 | 116.30769 | 34022 ft | 383 kts | 268° |
| 2026-04-25 11:03 | 22.30730 | 116.25002 | 34029 ft | 384 kts | 268° |
| 2026-04-25 11:03 | 22.30586 | 116.19284 | 34015 ft | 384 kts | 268° |
| 2026-04-25 11:04 | 22.30440 | 116.13505 | 34007 ft | 384 kts | 268° |
| 2026-04-25 11:04 | 22.30293 | 116.07773 | 34012 ft | 384 kts | 268° |
| 2026-04-25 11:05 | 22.30145 | 116.02016 | 34012 ft | 384 kts | 268° |
| 2026-04-25 11:05 | 22.29990 | 115.96272 | 33827 ft | 379 kts | 268° |
| 2026-04-25 11:05 | 22.29917 | 115.93456 | 33300 ft | 377 kts | 268° |
| 2026-04-25 11:06 | 22.29842 | 115.90626 | 32570 ft | 379 kts | 268° |
| 2026-04-25 11:06 | 22.29767 | 115.87806 | 31806 ft | 382 kts | 268° |
| 2026-04-25 11:06 | 22.29690 | 115.84919 | 30906 ft | 387 kts | 268° |
| 2026-04-25 11:06 | 22.29610 | 115.82027 | 29931 ft | 395 kts | 268° |
| 2026-04-25 11:07 | 22.29531 | 115.79051 | 28913 ft | 402 kts | 268° |
| 2026-04-25 11:07 | 22.29452 | 115.76036 | 27926 ft | 408 kts | 268° |
| 2026-04-25 11:07 | 22.29369 | 115.72959 | 27137 ft | 409 kts | 268° |
| 2026-04-25 11:07 | 22.29288 | 115.69939 | 26602 ft | 403 kts | 268° |
| 2026-04-25 11:08 | 22.29209 | 115.66932 | 26045 ft | 399 kts | 268° |
| 2026-04-25 11:08 | 22.29127 | 115.63936 | 25422 ft | 397 kts | 268° |
| 2026-04-25 11:08 | 22.29048 | 115.60995 | 24803 ft | 395 kts | 268° |
| 2026-04-25 11:08 | 22.28967 | 115.58056 | 24183 ft | 393 kts | 268° |
| 2026-04-25 11:09 | 22.28888 | 115.55135 | 23572 ft | 391 kts | 268° |
| 2026-04-25 11:09 | 22.28806 | 115.52208 | 22972 ft | 389 kts | 268° |
| 2026-04-25 11:09 | 22.28723 | 115.49279 | 22377 ft | 387 kts | 268° |
| 2026-04-25 11:09 | 22.28642 | 115.46406 | 21820 ft | 385 kts | 268° |
| 2026-04-25 11:10 | 22.28560 | 115.43531 | 21252 ft | 382 kts | 268° |
| 2026-04-25 11:10 | 22.28505 | 115.41637 | 20866 ft | 381 kts | 268° |
| 2026-04-25 11:10 | 22.28396 | 115.37877 | 20134 ft | 378 kts | 269° |
| 2026-04-25 11:10 | 22.28313 | 115.35037 | 19576 ft | 376 kts | 269° |
| 2026-04-25 11:11 | 22.28231 | 115.32230 | 19043 ft | 374 kts | 269° |
| 2026-04-25 11:11 | 22.28147 | 115.29424 | 18497 ft | 372 kts | 269° |
| 2026-04-25 11:11 | 22.28061 | 115.26652 | 17948 ft | 371 kts | 269° |
| 2026-04-25 11:11 | 22.27976 | 115.23873 | 17418 ft | 369 kts | 269° |
| 2026-04-25 11:12 | 22.27891 | 115.21139 | 16891 ft | 367 kts | 270° |
| 2026-04-25 11:12 | 22.27806 | 115.18399 | 16371 ft | 366 kts | 270° |
| 2026-04-25 11:12 | 22.27720 | 115.15657 | 15853 ft | 364 kts | 270° |
| 2026-04-25 11:12 | 22.27636 | 115.12940 | 15328 ft | 362 kts | 270° |
| 2026-04-25 11:13 | 22.27552 | 115.10263 | 14821 ft | 360 kts | 270° |
| 2026-04-25 11:13 | 22.27467 | 115.07553 | 14294 ft | 359 kts | 270° |
| 2026-04-25 11:13 | 22.27383 | 115.04894 | 13780 ft | 358 kts | 270° |
| 2026-04-25 11:13 | 22.27297 | 115.02213 | 13273 ft | 356 kts | 271° |
| 2026-04-25 11:14 | 22.27213 | 114.99532 | 12762 ft | 354 kts | 270° |
| 2026-04-25 11:14 | 22.27130 | 114.96903 | 12265 ft | 352 kts | 270° |
| 2026-04-25 11:14 | 22.27046 | 114.94282 | 11767 ft | 350 kts | 270° |
| 2026-04-25 11:14 | 22.26961 | 114.91685 | 11284 ft | 348 kts | 270° |
| 2026-04-25 11:15 | 22.26875 | 114.89080 | 11029 ft | 346 kts | 270° |
| 2026-04-25 11:15 | 22.26788 | 114.86473 | 11015 ft | 347 kts | 270° |
| 2026-04-25 11:15 | 22.26702 | 114.83885 | 11012 ft | 347 kts | 270° |
| 2026-04-25 11:15 | 22.26616 | 114.81325 | 10929 ft | 337 kts | 270° |
| 2026-04-25 11:16 | 22.25170 | 114.76724 | 10687 ft | 332 kts | 233° |
| 2026-04-25 11:16 | 22.23523 | 114.74943 | 10599 ft | 333 kts | 226° |
| 2026-04-25 11:16 | 22.21826 | 114.73233 | 10504 ft | 333 kts | 226° |
| 2026-04-25 11:17 | 22.20144 | 114.71539 | 10378 ft | 332 kts | 226° |
| 2026-04-25 11:17 | 22.18457 | 114.69827 | 10235 ft | 331 kts | 226° |
| 2026-04-25 11:17 | 22.16797 | 114.68134 | 10093 ft | 330 kts | 226° |
| 2026-04-25 11:17 | 22.15119 | 114.66419 | 9949 ft | 330 kts | 226° |
| 2026-04-25 11:18 | 22.13469 | 114.64726 | 9803 ft | 329 kts | 226° |
| 2026-04-25 11:18 | 22.11798 | 114.63010 | 9658 ft | 328 kts | 226° |
| 2026-04-25 11:18 | 22.10178 | 114.61351 | 9509 ft | 316 kts | 226° |
| 2026-04-25 11:18 | 22.08606 | 114.59739 | 9359 ft | 305 kts | 226° |
| 2026-04-25 11:19 | 22.07078 | 114.58175 | 9208 ft | 294 kts | 226° |
| 2026-04-25 11:19 | 22.05613 | 114.56670 | 9066 ft | 291 kts | 226° |
| 2026-04-25 11:19 | 22.04180 | 114.55118 | 8915 ft | 289 kts | 235° |
| 2026-04-25 11:19 | 22.03326 | 114.53195 | 8763 ft | 283 kts | 259° |
| 2026-04-25 11:20 | 22.03019 | 114.51115 | 8626 ft | 282 kts | 265° |
| 2026-04-25 11:20 | 22.02824 | 114.49012 | 8481 ft | 281 kts | 266° |
| 2026-04-25 11:20 | 22.02652 | 114.46928 | 8340 ft | 280 kts | 267° |
| 2026-04-25 11:20 | 22.02484 | 114.44856 | 8198 ft | 279 kts | 267° |
| 2026-04-25 11:21 | 22.02317 | 114.42757 | 8051 ft | 279 kts | 267° |
| 2026-04-25 11:21 | 22.02157 | 114.40693 | 7909 ft | 279 kts | 267° |
| 2026-04-25 11:21 | 22.01996 | 114.38608 | 7764 ft | 278 kts | 267° |
| 2026-04-25 11:21 | 22.01833 | 114.36532 | 7621 ft | 278 kts | 267° |
| 2026-04-25 11:22 | 22.01671 | 114.34455 | 7476 ft | 277 kts | 266° |
| 2026-04-25 11:22 | 22.01587 | 114.33082 | 7376 ft | 276 kts | 272° |
| 2026-04-25 11:22 | 22.01930 | 114.30366 | 7183 ft | 275 kts | 282° |
| 2026-04-25 11:22 | 22.02324 | 114.28361 | 7041 ft | 275 kts | 282° |
| 2026-04-25 11:23 | 22.02711 | 114.26346 | 6896 ft | 274 kts | 282° |
| 2026-04-25 11:23 | 22.03081 | 114.24316 | 6751 ft | 274 kts | 282° |
| 2026-04-25 11:23 | 22.03434 | 114.22300 | 6606 ft | 274 kts | 281° |
| 2026-04-25 11:23 | 22.03772 | 114.20309 | 6462 ft | 273 kts | 281° |
| 2026-04-25 11:24 | 22.04110 | 114.18291 | 6317 ft | 273 kts | 281° |
| 2026-04-25 11:24 | 22.04445 | 114.16260 | 6170 ft | 272 kts | 281° |
| 2026-04-25 11:24 | 22.04771 | 114.14275 | 6026 ft | 272 kts | 281° |
| 2026-04-25 11:24 | 22.05098 | 114.12270 | 5884 ft | 272 kts | 281° |
| 2026-04-25 11:25 | 22.05425 | 114.10271 | 5738 ft | 271 kts | 281° |
| 2026-04-25 11:25 | 22.05751 | 114.08265 | 5589 ft | 270 kts | 281° |
| 2026-04-25 11:25 | 22.06075 | 114.06280 | 5444 ft | 270 kts | 281° |
| 2026-04-25 11:25 | 22.06401 | 114.04269 | 5296 ft | 269 kts | 281° |
| 2026-04-25 11:26 | 22.06722 | 114.02296 | 5150 ft | 269 kts | 281° |
| 2026-04-25 11:26 | 22.07044 | 114.00315 | 4996 ft | 269 kts | 281° |
| 2026-04-25 11:26 | 22.07366 | 113.98320 | 4852 ft | 269 kts | 281° |
| 2026-04-25 11:26 | 22.07689 | 113.96330 | 4703 ft | 269 kts | 281° |
| 2026-04-25 11:27 | 22.08007 | 113.94367 | 4523 ft | 269 kts | 281° |
| 2026-04-25 11:27 | 22.08329 | 113.92372 | 4333 ft | 269 kts | 281° |
| 2026-04-25 11:27 | 22.08650 | 113.90377 | 4134 ft | 269 kts | 281° |
| 2026-04-25 11:27 | 22.08863 | 113.89059 | 4001 ft | 268 kts | 281° |
| 2026-04-25 11:28 | 22.09288 | 113.86422 | 3742 ft | 268 kts | 281° |
| 2026-04-25 11:28 | 22.09604 | 113.84461 | 3556 ft | 267 kts | 281° |
| 2026-04-25 11:28 | 22.09923 | 113.82474 | 3360 ft | 266 kts | 281° |
| 2026-04-25 11:28 | 22.10236 | 113.80530 | 3169 ft | 266 kts | 281° |
| 2026-04-25 11:29 | 22.10640 | 113.78590 | 2983 ft | 264 kts | 294° |
| 2026-04-25 11:29 | 22.11747 | 113.77043 | 2830 ft | 262 kts | 325° |
| 2026-04-25 11:29 | 22.13351 | 113.76150 | 2696 ft | 262 kts | 338° |
| 2026-04-25 11:29 | 22.15026 | 113.75370 | 2552 ft | 262 kts | 338° |
| 2026-04-25 11:30 | 22.16719 | 113.74563 | 2406 ft | 263 kts | 337° |
| 2026-04-25 11:30 | 22.18393 | 113.73746 | 2261 ft | 263 kts | 336° |
| 2026-04-25 11:30 | 22.20040 | 113.72930 | 2113 ft | 257 kts | 337° |
| 2026-04-25 11:30 | 22.21652 | 113.72126 | 1976 ft | 247 kts | 337° |
| 2026-04-25 11:31 | 22.23197 | 113.71587 | 1930 ft | 230 kts | 1° |
| 2026-04-25 11:31 | 22.24623 | 113.72064 | 1940 ft | 213 kts | 40° |
| 2026-04-25 11:31 | 22.25635 | 113.73138 | 2033 ft | 194 kts | 46° |
| 2026-04-25 11:31 | 22.26578 | 113.74106 | 1964 ft | 176 kts | 44° |
| 2026-04-25 11:32 | 22.27430 | 113.74950 | 1924 ft | 157 kts | 50° |
| 2026-04-25 11:32 | 22.28044 | 113.75911 | 1955 ft | 154 kts | 63° |
| 2026-04-25 11:32 | 22.28496 | 113.76962 | 1979 ft | 154 kts | 69° |
| 2026-04-25 11:32 | 22.28874 | 113.78006 | 1879 ft | 146 kts | 71° |
| 2026-04-25 11:33 | 22.29212 | 113.79030 | 1698 ft | 144 kts | 72° |
| 2026-04-25 11:33 | 22.29536 | 113.80043 | 1518 ft | 143 kts | 73° |
| 2026-04-25 11:33 | 22.29860 | 113.81057 | 1336 ft | 143 kts | 73° |
| 2026-04-25 11:33 | 22.30184 | 113.82065 | 1150 ft | 142 kts | 73° |
| 2026-04-25 11:34 | 22.30510 | 113.83078 | 967 ft | 142 kts | 73° |
| 2026-04-25 11:34 | 22.30833 | 113.84089 | 792 ft | 142 kts | 73° |
| 2026-04-25 11:34 | 22.31148 | 113.85097 | 627 ft | 141 kts | 73° |
| 2026-04-25 11:34 | 22.31468 | 113.86090 | 450 ft | 141 kts | 73° |
| 2026-04-25 11:35 | 22.31797 | 113.87106 | 288 ft | 140 kts | 74° |
| 2026-04-25 11:35 | 22.32113 | 113.88087 | 137 ft | 139 kts | 73° |
| 2026-04-25 11:35 | 22.32427 | 113.89070 | 35 ft | 129 kts | 72° |
| 2026-04-25 11:35 | 22.32663 | 113.89803 | 35 ft | 62 kts | 70° |
| 2026-04-25 11:36 | 22.32700 | 113.90058 | 35 ft | 23 kts | 98° |
| 2026-04-25 11:36 | 22.32683 | 113.90158 | 35 ft | 5 kts | 102° |
| 2026-04-25 11:36 | 22.32674 | 113.90201 | 35 ft | 6 kts | 111° |
| 2026-04-25 11:36 | 22.32647 | 113.90240 | 35 ft | 6 kts | 129° |
| 2026-04-25 11:37 | 22.32603 | 113.90279 | 35 ft | 13 kts | 149° |
| 2026-04-25 11:37 | 22.32510 | 113.90311 | 35 ft | 14 kts | 162° |
| 2026-04-25 11:37 | 22.32416 | 113.90348 | 34 ft | 14 kts | 159° |
| 2026-04-25 11:37 | 22.32323 | 113.90385 | 34 ft | 14 kts | 162° |
| 2026-04-25 11:38 | 22.32226 | 113.90418 | 35 ft | 14 kts | 159° |
| 2026-04-25 11:38 | 22.32134 | 113.90459 | 35 ft | 14 kts | 157° |
| 2026-04-25 11:38 | 22.32039 | 113.90498 | 35 ft | 14 kts | 161° |
| 2026-04-25 11:38 | 22.31943 | 113.90531 | 35 ft | 14 kts | 163° |
| 2026-04-25 11:39 | 22.31845 | 113.90566 | 35 ft | 14 kts | 161° |
| 2026-04-25 11:39 | 22.31748 | 113.90603 | 35 ft | 14 kts | 160° |